sensor_id;sensor_type;location;lat;lon;timestamp;P1;durP1;ratioP1;P2;durP2;ratioP2
47053;SDS011;32811;52.382;5.270;2022-11-21T00:00:42;21.23;;;12.90;;
47053;SDS011;32811;52.382;5.270;2022-11-21T00:03:11;20.23;;;12.73;;
47053;SDS011;32811;52.382;5.270;2022-11-21T00:05:39;20.85;;;13.27;;
47053;SDS011;32811;52.382;5.270;2022-11-21T00:08:11;16.05;;;11.30;;
47053;SDS011;32811;52.382;5.270;2022-11-21T00:10:40;17.98;;;12.05;;
47053;SDS011;32811;52.382;5.270;2022-11-21T00:13:07;15.20;;;10.55;;
47053;SDS011;32811;52.382;5.270;2022-11-21T00:15:38;17.02;;;11.52;;
47053;SDS011;32811;52.382;5.270;2022-11-21T00:18:05;17.85;;;12.02;;
47053;SDS011;32811;52.382;5.270;2022-11-21T00:20:33;16.95;;;12.32;;
47053;SDS011;32811;52.382;5.270;2022-11-21T00:23:02;18.13;;;10.85;;
47053;SDS011;32811;52.382;5.270;2022-11-21T00:25:30;16.27;;;11.20;;
47053;SDS011;32811;52.382;5.270;2022-11-21T00:27:57;14.73;;;11.13;;
47053;SDS011;32811;52.382;5.270;2022-11-21T00:30:25;16.45;;;11.65;;
47053;SDS011;32811;52.382;5.270;2022-11-21T00:32:52;13.75;;;10.00;;
47053;SDS011;32811;52.382;5.270;2022-11-21T00:35:19;14.88;;;10.65;;
47053;SDS011;32811;52.382;5.270;2022-11-21T00:37:45;15.95;;;11.20;;
47053;SDS011;32811;52.382;5.270;2022-11-21T00:40:13;17.80;;;11.73;;
47053;SDS011;32811;52.382;5.270;2022-11-21T00:42:41;19.60;;;11.60;;
47053;SDS011;32811;52.382;5.270;2022-11-21T00:45:08;19.23;;;12.45;;
47053;SDS011;32811;52.382;5.270;2022-11-21T00:47:36;18.00;;;11.23;;
47053;SDS011;32811;52.382;5.270;2022-11-21T00:50:02;16.75;;;11.02;;
47053;SDS011;32811;52.382;5.270;2022-11-21T00:52:30;15.10;;;10.50;;
47053;SDS011;32811;52.382;5.270;2022-11-21T00:54:57;18.73;;;11.60;;
47053;SDS011;32811;52.382;5.270;2022-11-21T00:57:24;19.50;;;13.13;;
47053;SDS011;32811;52.382;5.270;2022-11-21T00:59:51;19.90;;;11.18;;
47053;SDS011;32811;52.382;5.270;2022-11-21T01:02:17;18.55;;;12.48;;
47053;SDS011;32811;52.382;5.270;2022-11-21T01:04:44;16.58;;;11.30;;
47053;SDS011;32811;52.382;5.270;2022-11-21T01:07:12;18.70;;;12.48;;
47053;SDS011;32811;52.382;5.270;2022-11-21T01:09:39;21.60;;;13.10;;
47053;SDS011;32811;52.382;5.270;2022-11-21T01:12:06;19.35;;;12.35;;
47053;SDS011;32811;52.382;5.270;2022-11-21T01:14:33;16.60;;;12.35;;
47053;SDS011;32811;52.382;5.270;2022-11-21T01:17:00;17.23;;;11.90;;
47053;SDS011;32811;52.382;5.270;2022-11-21T01:19:34;15.45;;;10.27;;
47053;SDS011;32811;52.382;5.270;2022-11-21T01:22:01;17.88;;;11.65;;
47053;SDS011;32811;52.382;5.270;2022-11-21T01:24:28;20.00;;;12.85;;
47053;SDS011;32811;52.382;5.270;2022-11-21T01:26:55;19.90;;;11.73;;
47053;SDS011;32811;52.382;5.270;2022-11-21T01:29:21;21.42;;;11.27;;
47053;SDS011;32811;52.382;5.270;2022-11-21T01:31:49;21.63;;;13.07;;
47053;SDS011;32811;52.382;5.270;2022-11-21T01:34:16;18.30;;;11.43;;
47053;SDS011;32811;52.382;5.270;2022-11-21T01:36:43;18.65;;;13.10;;
47053;SDS011;32811;52.382;5.270;2022-11-21T01:39:10;19.58;;;13.05;;
47053;SDS011;32811;52.382;5.270;2022-11-21T01:41:39;19.90;;;12.38;;
47053;SDS011;32811;52.382;5.270;2022-11-21T01:44:21;21.40;;;12.93;;
47053;SDS011;32811;52.382;5.270;2022-11-21T01:46:50;18.98;;;11.98;;
47053;SDS011;32811;52.382;5.270;2022-11-21T01:49:19;19.92;;;12.00;;
47053;SDS011;32811;52.382;5.270;2022-11-21T01:57:18;16.83;;;12.07;;
47053;SDS011;32811;52.382;5.270;2022-11-21T02:00:09;17.02;;;10.55;;
47053;SDS011;32811;52.382;5.270;2022-11-21T02:02:43;16.10;;;11.38;;
47053;SDS011;32811;52.382;5.270;2022-11-21T02:05:22;18.67;;;12.10;;
47053;SDS011;32811;52.382;5.270;2022-11-21T02:07:51;14.73;;;11.23;;
47053;SDS011;32811;52.382;5.270;2022-11-21T02:10:23;16.00;;;10.88;;
47053;SDS011;32811;52.382;5.270;2022-11-21T02:12:54;12.65;;;8.85;;
47053;SDS011;32811;52.382;5.270;2022-11-21T02:15:24;15.00;;;10.05;;
47053;SDS011;32811;52.382;5.270;2022-11-21T02:17:52;12.40;;;9.55;;
47053;SDS011;32811;52.382;5.270;2022-11-21T02:20:21;13.23;;;9.73;;
47053;SDS011;32811;52.382;5.270;2022-11-21T02:25:27;14.43;;;10.38;;
47053;SDS011;32811;52.382;5.270;2022-11-21T02:27:57;15.40;;;10.35;;
47053;SDS011;32811;52.382;5.270;2022-11-21T02:30:30;17.80;;;10.77;;
47053;SDS011;32811;52.382;5.270;2022-11-21T02:32:58;15.80;;;10.00;;
47053;SDS011;32811;52.382;5.270;2022-11-21T02:35:26;14.73;;;10.27;;
47053;SDS011;32811;52.382;5.270;2022-11-21T02:38:01;14.27;;;9.88;;
47053;SDS011;32811;52.382;5.270;2022-11-21T02:40:33;13.77;;;9.95;;
47053;SDS011;32811;52.382;5.270;2022-11-21T02:43:09;14.52;;;9.45;;
47053;SDS011;32811;52.382;5.270;2022-11-21T02:45:49;9.93;;;7.00;;
47053;SDS011;32811;52.382;5.270;2022-11-21T02:48:15;12.00;;;9.00;;
47053;SDS011;32811;52.382;5.270;2022-11-21T02:50:43;15.35;;;10.13;;
47053;SDS011;32811;52.382;5.270;2022-11-21T02:53:13;13.32;;;9.80;;
47053;SDS011;32811;52.382;5.270;2022-11-21T02:55:42;15.77;;;10.02;;
47053;SDS011;32811;52.382;5.270;2022-11-21T02:58:10;14.98;;;9.90;;
47053;SDS011;32811;52.382;5.270;2022-11-21T03:00:38;14.13;;;10.40;;
47053;SDS011;32811;52.382;5.270;2022-11-21T03:03:07;15.88;;;11.07;;
47053;SDS011;32811;52.382;5.270;2022-11-21T03:05:34;16.55;;;9.77;;
47053;SDS011;32811;52.382;5.270;2022-11-21T03:08:01;14.73;;;10.45;;
47053;SDS011;32811;52.382;5.270;2022-11-21T03:10:29;13.20;;;9.77;;
47053;SDS011;32811;52.382;5.270;2022-11-21T03:12:55;16.17;;;10.73;;
47053;SDS011;32811;52.382;5.270;2022-11-21T03:15:27;14.93;;;10.05;;
47053;SDS011;32811;52.382;5.270;2022-11-21T03:17:56;15.18;;;9.63;;
47053;SDS011;32811;52.382;5.270;2022-11-21T03:20:22;14.00;;;10.20;;
47053;SDS011;32811;52.382;5.270;2022-11-21T03:22:49;13.60;;;9.38;;
47053;SDS011;32811;52.382;5.270;2022-11-21T03:25:18;13.45;;;9.38;;
47053;SDS011;32811;52.382;5.270;2022-11-21T03:27:45;17.77;;;11.10;;
47053;SDS011;32811;52.382;5.270;2022-11-21T03:30:15;18.35;;;11.50;;
47053;SDS011;32811;52.382;5.270;2022-11-21T03:32:42;22.55;;;12.82;;
47053;SDS011;32811;52.382;5.270;2022-11-21T03:35:08;23.42;;;12.45;;
47053;SDS011;32811;52.382;5.270;2022-11-21T03:37:35;19.48;;;13.23;;
47053;SDS011;32811;52.382;5.270;2022-11-21T03:40:02;25.58;;;15.40;;
47053;SDS011;32811;52.382;5.270;2022-11-21T03:42:29;24.27;;;15.25;;
47053;SDS011;32811;52.382;5.270;2022-11-21T03:44:55;22.45;;;14.85;;
47053;SDS011;32811;52.382;5.270;2022-11-21T03:47:22;22.98;;;14.55;;
47053;SDS011;32811;52.382;5.270;2022-11-21T03:49:50;24.88;;;16.20;;
47053;SDS011;32811;52.382;5.270;2022-11-21T03:52:17;23.98;;;14.63;;
47053;SDS011;32811;52.382;5.270;2022-11-21T03:54:45;20.65;;;13.52;;
47053;SDS011;32811;52.382;5.270;2022-11-21T03:57:12;23.92;;;14.52;;
47053;SDS011;32811;52.382;5.270;2022-11-21T03:59:38;26.35;;;16.27;;
47053;SDS011;32811;52.382;5.270;2022-11-21T04:02:05;25.20;;;16.83;;
47053;SDS011;32811;52.382;5.270;2022-11-21T04:04:31;22.83;;;14.60;;
47053;SDS011;32811;52.382;5.270;2022-11-21T04:06:58;32.80;;;18.17;;
47053;SDS011;32811;52.382;5.270;2022-11-21T04:09:25;22.70;;;15.48;;
47053;SDS011;32811;52.382;5.270;2022-11-21T04:11:52;25.67;;;15.13;;
47053;SDS011;32811;52.382;5.270;2022-11-21T04:14:19;23.73;;;14.85;;
47053;SDS011;32811;52.382;5.270;2022-11-21T04:16:46;27.63;;;16.95;;
47053;SDS011;32811;52.382;5.270;2022-11-21T04:19:13;26.35;;;16.30;;
47053;SDS011;32811;52.382;5.270;2022-11-21T04:21:40;26.08;;;16.52;;
47053;SDS011;32811;52.382;5.270;2022-11-21T04:24:07;24.77;;;16.00;;
47053;SDS011;32811;52.382;5.270;2022-11-21T04:26:34;25.50;;;16.48;;
47053;SDS011;32811;52.382;5.270;2022-11-21T04:29:01;28.98;;;16.15;;
47053;SDS011;32811;52.382;5.270;2022-11-21T04:31:28;26.35;;;16.58;;
47053;SDS011;32811;52.382;5.270;2022-11-21T04:33:55;29.23;;;17.52;;
47053;SDS011;32811;52.382;5.270;2022-11-21T04:36:23;30.40;;;17.15;;
47053;SDS011;32811;52.382;5.270;2022-11-21T04:38:50;27.08;;;16.70;;
47053;SDS011;32811;52.382;5.270;2022-11-21T04:41:17;31.00;;;18.27;;
47053;SDS011;32811;52.382;5.270;2022-11-21T04:43:43;26.40;;;16.35;;
47053;SDS011;32811;52.382;5.270;2022-11-21T04:46:10;28.33;;;17.92;;
47053;SDS011;32811;52.382;5.270;2022-11-21T04:48:37;28.27;;;17.27;;
47053;SDS011;32811;52.382;5.270;2022-11-21T04:51:05;27.52;;;16.77;;
47053;SDS011;32811;52.382;5.270;2022-11-21T04:53:32;31.38;;;18.55;;
47053;SDS011;32811;52.382;5.270;2022-11-21T04:56:05;27.45;;;17.55;;
47053;SDS011;32811;52.382;5.270;2022-11-21T04:58:32;28.27;;;17.52;;
47053;SDS011;32811;52.382;5.270;2022-11-21T05:01:03;28.65;;;16.75;;
47053;SDS011;32811;52.382;5.270;2022-11-21T05:03:31;25.55;;;16.10;;
47053;SDS011;32811;52.382;5.270;2022-11-21T05:05:59;33.38;;;17.98;;
47053;SDS011;32811;52.382;5.270;2022-11-21T05:08:26;39.97;;;18.73;;
47053;SDS011;32811;52.382;5.270;2022-11-21T05:10:53;45.55;;;16.83;;
47053;SDS011;32811;52.382;5.270;2022-11-21T05:13:38;55.05;;;16.77;;
47053;SDS011;32811;52.382;5.270;2022-11-21T05:16:05;65.05;;;18.70;;
47053;SDS011;32811;52.382;5.270;2022-11-21T05:18:32;87.32;;;19.88;;
47053;SDS011;32811;52.382;5.270;2022-11-21T05:20:59;35.35;;;17.30;;
47053;SDS011;32811;52.382;5.270;2022-11-21T05:23:27;44.35;;;18.35;;
47053;SDS011;32811;52.382;5.270;2022-11-21T05:25:53;64.75;;;18.95;;
47053;SDS011;32811;52.382;5.270;2022-11-21T05:28:20;59.90;;;18.85;;
47053;SDS011;32811;52.382;5.270;2022-11-21T05:30:47;50.25;;;18.10;;
47053;SDS011;32811;52.382;5.270;2022-11-21T05:33:14;83.90;;;20.05;;
47053;SDS011;32811;52.382;5.270;2022-11-21T05:35:41;41.20;;;19.05;;
47053;SDS011;32811;52.382;5.270;2022-11-21T05:38:09;55.58;;;20.33;;
47053;SDS011;32811;52.382;5.270;2022-11-21T05:40:35;51.33;;;20.00;;
47053;SDS011;32811;52.382;5.270;2022-11-21T05:43:02;60.20;;;20.85;;
47053;SDS011;32811;52.382;5.270;2022-11-21T05:45:48;39.35;;;19.70;;
47053;SDS011;32811;52.382;5.270;2022-11-21T05:48:16;35.70;;;20.02;;
47053;SDS011;32811;52.382;5.270;2022-11-21T05:50:45;61.55;;;20.50;;
47053;SDS011;32811;52.382;5.270;2022-11-21T05:53:13;77.15;;;21.38;;
47053;SDS011;32811;52.382;5.270;2022-11-21T05:55:41;40.55;;;21.42;;
47053;SDS011;32811;52.382;5.270;2022-11-21T05:58:08;45.88;;;19.58;;
47053;SDS011;32811;52.382;5.270;2022-11-21T06:00:36;99.68;;;21.27;;
47053;SDS011;32811;52.382;5.270;2022-11-21T06:03:03;57.90;;;19.55;;
47053;SDS011;32811;52.382;5.270;2022-11-21T06:05:49;56.05;;;20.48;;
47053;SDS011;32811;52.382;5.270;2022-11-21T06:08:16;89.28;;;20.33;;
47053;SDS011;32811;52.382;5.270;2022-11-21T06:10:43;91.18;;;20.42;;
47053;SDS011;32811;52.382;5.270;2022-11-21T06:13:10;39.03;;;20.92;;
47053;SDS011;32811;52.382;5.270;2022-11-21T06:15:51;74.35;;;21.35;;
47053;SDS011;32811;52.382;5.270;2022-11-21T06:18:18;54.63;;;19.45;;
47053;SDS011;32811;52.382;5.270;2022-11-21T06:20:46;55.25;;;19.45;;
47053;SDS011;32811;52.382;5.270;2022-11-21T06:23:15;33.83;;;18.30;;
47053;SDS011;32811;52.382;5.270;2022-11-21T06:25:42;36.15;;;17.70;;
47053;SDS011;32811;52.382;5.270;2022-11-21T06:28:10;35.17;;;18.10;;
47053;SDS011;32811;52.382;5.270;2022-11-21T06:30:37;40.58;;;18.88;;
47053;SDS011;32811;52.382;5.270;2022-11-21T06:33:04;30.88;;;16.98;;
47053;SDS011;32811;52.382;5.270;2022-11-21T06:35:35;27.67;;;15.23;;
47053;SDS011;32811;52.382;5.270;2022-11-21T06:38:03;25.70;;;15.20;;
47053;SDS011;32811;52.382;5.270;2022-11-21T06:40:29;28.75;;;16.40;;
47053;SDS011;32811;52.382;5.270;2022-11-21T06:42:56;23.92;;;15.05;;
47053;SDS011;32811;52.382;5.270;2022-11-21T06:45:23;25.85;;;15.48;;
47053;SDS011;32811;52.382;5.270;2022-11-21T06:47:51;23.83;;;14.48;;
47053;SDS011;32811;52.382;5.270;2022-11-21T06:50:17;23.27;;;14.82;;
47053;SDS011;32811;52.382;5.270;2022-11-21T06:52:44;27.42;;;15.38;;
47053;SDS011;32811;52.382;5.270;2022-11-21T06:55:11;24.58;;;15.38;;
47053;SDS011;32811;52.382;5.270;2022-11-21T06:57:39;29.88;;;17.40;;
47053;SDS011;32811;52.382;5.270;2022-11-21T07:00:06;22.75;;;15.35;;
47053;SDS011;32811;52.382;5.270;2022-11-21T07:02:33;26.50;;;16.17;;
47053;SDS011;32811;52.382;5.270;2022-11-21T07:05:00;29.30;;;16.88;;
47053;SDS011;32811;52.382;5.270;2022-11-21T07:07:26;26.65;;;14.90;;
47053;SDS011;32811;52.382;5.270;2022-11-21T07:09:53;26.80;;;16.08;;
47053;SDS011;32811;52.382;5.270;2022-11-21T07:12:19;24.77;;;14.95;;
47053;SDS011;32811;52.382;5.270;2022-11-21T07:15:05;27.27;;;16.30;;
47053;SDS011;32811;52.382;5.270;2022-11-21T07:17:32;24.90;;;15.50;;
47053;SDS011;32811;52.382;5.270;2022-11-21T07:19:58;26.92;;;16.83;;
47053;SDS011;32811;52.382;5.270;2022-11-21T07:22:25;29.08;;;16.25;;
47053;SDS011;32811;52.382;5.270;2022-11-21T07:24:51;31.95;;;17.25;;
47053;SDS011;32811;52.382;5.270;2022-11-21T07:27:18;30.08;;;16.85;;
47053;SDS011;32811;52.382;5.270;2022-11-21T07:29:44;27.27;;;17.92;;
47053;SDS011;32811;52.382;5.270;2022-11-21T07:32:11;27.20;;;15.57;;
47053;SDS011;32811;52.382;5.270;2022-11-21T07:34:37;27.63;;;16.67;;
47053;SDS011;32811;52.382;5.270;2022-11-21T07:37:04;37.05;;;18.52;;
47053;SDS011;32811;52.382;5.270;2022-11-21T07:39:31;34.60;;;20.20;;
47053;SDS011;32811;52.382;5.270;2022-11-21T07:41:58;33.33;;;17.98;;
47053;SDS011;32811;52.382;5.270;2022-11-21T07:44:24;31.83;;;17.58;;
47053;SDS011;32811;52.382;5.270;2022-11-21T07:46:54;28.60;;;17.25;;
47053;SDS011;32811;52.382;5.270;2022-11-21T07:49:21;35.25;;;18.33;;
47053;SDS011;32811;52.382;5.270;2022-11-21T07:51:48;35.38;;;17.92;;
47053;SDS011;32811;52.382;5.270;2022-11-21T07:54:15;34.65;;;18.95;;
47053;SDS011;32811;52.382;5.270;2022-11-21T07:56:42;39.20;;;18.85;;
47053;SDS011;32811;52.382;5.270;2022-11-21T07:59:09;45.08;;;19.98;;
47053;SDS011;32811;52.382;5.270;2022-11-21T08:01:35;45.15;;;21.83;;
47053;SDS011;32811;52.382;5.270;2022-11-21T08:04:09;39.33;;;19.63;;
47053;SDS011;32811;52.382;5.270;2022-11-21T08:06:35;38.90;;;17.25;;
47053;SDS011;32811;52.382;5.270;2022-11-21T08:09:02;33.58;;;18.27;;
47053;SDS011;32811;52.382;5.270;2022-11-21T08:11:29;36.40;;;18.50;;
47053;SDS011;32811;52.382;5.270;2022-11-21T08:13:57;32.08;;;16.60;;
47053;SDS011;32811;52.382;5.270;2022-11-21T08:16:24;33.40;;;17.55;;
47053;SDS011;32811;52.382;5.270;2022-11-21T08:18:53;32.25;;;16.50;;
47053;SDS011;32811;52.382;5.270;2022-11-21T08:21:19;32.17;;;16.05;;
47053;SDS011;32811;52.382;5.270;2022-11-21T08:23:46;29.50;;;16.42;;
47053;SDS011;32811;52.382;5.270;2022-11-21T08:26:14;34.78;;;16.98;;
47053;SDS011;32811;52.382;5.270;2022-11-21T08:28:41;28.20;;;15.02;;
47053;SDS011;32811;52.382;5.270;2022-11-21T08:31:09;30.42;;;15.98;;
47053;SDS011;32811;52.382;5.270;2022-11-21T08:33:35;29.17;;;14.23;;
47053;SDS011;32811;52.382;5.270;2022-11-21T08:36:05;26.20;;;13.85;;
47053;SDS011;32811;52.382;5.270;2022-11-21T08:38:32;30.13;;;15.88;;
47053;SDS011;32811;52.382;5.270;2022-11-21T08:40:59;30.65;;;15.23;;
47053;SDS011;32811;52.382;5.270;2022-11-21T08:43:44;21.20;;;11.35;;
47053;SDS011;32811;52.382;5.270;2022-11-21T08:46:10;34.05;;;15.20;;
47053;SDS011;32811;52.382;5.270;2022-11-21T08:48:37;26.15;;;14.63;;
47053;SDS011;32811;52.382;5.270;2022-11-21T08:51:04;27.02;;;14.10;;
47053;SDS011;32811;52.382;5.270;2022-11-21T08:53:31;36.97;;;16.77;;
47053;SDS011;32811;52.382;5.270;2022-11-21T08:56:01;37.42;;;17.40;;
47053;SDS011;32811;52.382;5.270;2022-11-21T08:58:29;29.13;;;15.38;;
47053;SDS011;32811;52.382;5.270;2022-11-21T09:00:57;31.95;;;17.92;;
47053;SDS011;32811;52.382;5.270;2022-11-21T09:03:24;33.53;;;16.45;;
47053;SDS011;32811;52.382;5.270;2022-11-21T09:05:56;31.83;;;16.58;;
47053;SDS011;32811;52.382;5.270;2022-11-21T09:08:24;29.23;;;15.75;;
47053;SDS011;32811;52.382;5.270;2022-11-21T09:10:52;36.83;;;18.50;;
47053;SDS011;32811;52.382;5.270;2022-11-21T09:13:18;32.47;;;17.42;;
47053;SDS011;32811;52.382;5.270;2022-11-21T09:15:46;29.65;;;16.42;;
47053;SDS011;32811;52.382;5.270;2022-11-21T09:20:58;32.10;;;16.42;;
47053;SDS011;32811;52.382;5.270;2022-11-21T09:23:24;31.10;;;17.25;;
47053;SDS011;32811;52.382;5.270;2022-11-21T09:25:51;32.15;;;17.33;;
47053;SDS011;32811;52.382;5.270;2022-11-21T09:28:18;32.65;;;17.75;;
47053;SDS011;32811;52.382;5.270;2022-11-21T09:30:45;32.92;;;17.30;;
47053;SDS011;32811;52.382;5.270;2022-11-21T09:33:12;37.17;;;17.10;;
47053;SDS011;32811;52.382;5.270;2022-11-21T09:35:42;35.67;;;18.30;;
47053;SDS011;32811;52.382;5.270;2022-11-21T09:38:09;29.45;;;16.52;;
47053;SDS011;32811;52.382;5.270;2022-11-21T09:40:36;32.00;;;17.23;;
47053;SDS011;32811;52.382;5.270;2022-11-21T09:46:25;29.90;;;15.98;;
47053;SDS011;32811;52.382;5.270;2022-11-21T09:48:53;29.20;;;16.13;;
47053;SDS011;32811;52.382;5.270;2022-11-21T09:51:24;31.02;;;15.82;;
47053;SDS011;32811;52.382;5.270;2022-11-21T09:56:37;29.92;;;17.95;;
47053;SDS011;32811;52.382;5.270;2022-11-21T10:01:41;28.53;;;15.00;;
47053;SDS011;32811;52.382;5.270;2022-11-21T10:04:08;36.60;;;15.30;;
47053;SDS011;32811;52.382;5.270;2022-11-21T10:06:37;26.20;;;15.45;;
47053;SDS011;32811;52.382;5.270;2022-11-21T10:09:15;28.77;;;15.63;;
47053;SDS011;32811;52.382;5.270;2022-11-21T10:26:14;22.02;;;13.90;;
47053;SDS011;32811;52.382;5.270;2022-11-21T10:31:13;27.02;;;16.15;;
47053;SDS011;32811;52.382;5.270;2022-11-21T10:33:40;26.23;;;14.68;;
47053;SDS011;32811;52.382;5.270;2022-11-21T10:36:26;29.13;;;16.20;;
47053;SDS011;32811;52.382;5.270;2022-11-21T10:38:57;25.73;;;14.80;;
47053;SDS011;32811;52.382;5.270;2022-11-21T10:44:18;27.13;;;15.95;;
47053;SDS011;32811;52.382;5.270;2022-11-21T10:47:13;28.65;;;14.95;;
47053;SDS011;32811;52.382;5.270;2022-11-21T10:49:41;25.35;;;12.50;;
47053;SDS011;32811;52.382;5.270;2022-11-21T10:52:12;26.48;;;14.43;;
47053;SDS011;32811;52.382;5.270;2022-11-21T10:55:02;30.52;;;15.40;;
47053;SDS011;32811;52.382;5.270;2022-11-21T10:57:38;31.13;;;15.27;;
47053;SDS011;32811;52.382;5.270;2022-11-21T11:02:40;24.88;;;14.70;;
47053;SDS011;32811;52.382;5.270;2022-11-21T11:07:41;30.52;;;16.55;;
47053;SDS011;32811;52.382;5.270;2022-11-21T11:10:23;27.95;;;16.10;;
47053;SDS011;32811;52.382;5.270;2022-11-21T11:12:53;28.27;;;14.93;;
47053;SDS011;32811;52.382;5.270;2022-11-21T11:16:03;29.77;;;15.18;;
47053;SDS011;32811;52.382;5.270;2022-11-21T11:18:38;32.67;;;16.83;;
47053;SDS011;32811;52.382;5.270;2022-11-21T11:29:24;29.75;;;16.30;;
47053;SDS011;32811;52.382;5.270;2022-11-21T11:31:58;32.55;;;15.88;;
47053;SDS011;32811;52.382;5.270;2022-11-21T11:43:04;28.13;;;15.20;;
47053;SDS011;32811;52.382;5.270;2022-11-21T11:46:16;24.67;;;14.75;;
47053;SDS011;32811;52.382;5.270;2022-11-21T11:49:48;29.40;;;16.20;;
47053;SDS011;32811;52.382;5.270;2022-11-21T11:52:47;25.50;;;15.05;;
47053;SDS011;32811;52.382;5.270;2022-11-21T11:55:22;28.77;;;15.52;;
47053;SDS011;32811;52.382;5.270;2022-11-21T11:57:58;31.63;;;15.50;;
47053;SDS011;32811;52.382;5.270;2022-11-21T12:00:39;35.08;;;16.52;;
47053;SDS011;32811;52.382;5.270;2022-11-21T12:03:17;30.80;;;17.77;;
47053;SDS011;32811;52.382;5.270;2022-11-21T12:09:33;24.00;;;15.05;;
47053;SDS011;32811;52.382;5.270;2022-11-21T12:15:08;27.98;;;15.15;;
47053;SDS011;32811;52.382;5.270;2022-11-21T12:20:52;28.52;;;16.77;;
47053;SDS011;32811;52.382;5.270;2022-11-21T12:23:30;38.13;;;16.92;;
47053;SDS011;32811;52.382;5.270;2022-11-21T12:29:00;35.05;;;17.58;;
47053;SDS011;32811;52.382;5.270;2022-11-21T12:37:07;29.42;;;17.30;;
47053;SDS011;32811;52.382;5.270;2022-11-21T13:03:19;39.88;;;19.67;;
47053;SDS011;32811;52.382;5.270;2022-11-21T13:05:54;27.73;;;16.95;;
47053;SDS011;32811;52.382;5.270;2022-11-21T13:08:24;28.30;;;18.10;;
47053;SDS011;32811;52.382;5.270;2022-11-21T13:11:01;28.35;;;18.80;;
47053;SDS011;32811;52.382;5.270;2022-11-21T13:16:38;32.17;;;18.10;;
47053;SDS011;32811;52.382;5.270;2022-11-21T13:19:18;30.65;;;17.15;;
47053;SDS011;32811;52.382;5.270;2022-11-21T13:21:51;22.75;;;17.25;;
47053;SDS011;32811;52.382;5.270;2022-11-21T13:27:55;26.52;;;16.13;;
47053;SDS011;32811;52.382;5.270;2022-11-21T13:32:41;29.45;;;18.10;;
47053;SDS011;32811;52.382;5.270;2022-11-21T13:40:34;33.42;;;17.95;;
47053;SDS011;32811;52.382;5.270;2022-11-21T13:45:59;26.73;;;17.05;;
47053;SDS011;32811;52.382;5.270;2022-11-21T13:56:36;24.27;;;16.17;;
47053;SDS011;32811;52.382;5.270;2022-11-21T14:04:32;24.27;;;16.40;;
47053;SDS011;32811;52.382;5.270;2022-11-21T14:07:20;30.20;;;16.63;;
47053;SDS011;32811;52.382;5.270;2022-11-21T14:09:50;29.30;;;15.77;;
47053;SDS011;32811;52.382;5.270;2022-11-21T14:12:19;23.88;;;15.65;;
47053;SDS011;32811;52.382;5.270;2022-11-21T14:17:31;24.38;;;15.00;;
47053;SDS011;32811;52.382;5.270;2022-11-21T14:20:03;22.90;;;14.75;;
47053;SDS011;32811;52.382;5.270;2022-11-21T14:22:40;32.17;;;15.70;;
47053;SDS011;32811;52.382;5.270;2022-11-21T14:25:32;30.40;;;14.43;;
47053;SDS011;32811;52.382;5.270;2022-11-21T14:28:01;29.08;;;17.65;;
47053;SDS011;32811;52.382;5.270;2022-11-21T14:30:39;22.17;;;15.20;;
47053;SDS011;32811;52.382;5.270;2022-11-21T14:36:34;23.50;;;13.50;;
47053;SDS011;32811;52.382;5.270;2022-11-21T14:38:57;22.85;;;12.93;;
47053;SDS011;32811;52.382;5.270;2022-11-21T14:41:51;19.95;;;13.02;;
47053;SDS011;32811;52.382;5.270;2022-11-21T14:44:21;19.75;;;12.52;;
47053;SDS011;32811;52.382;5.270;2022-11-21T14:46:49;22.30;;;13.15;;
47053;SDS011;32811;52.382;5.270;2022-11-21T14:49:23;19.60;;;13.23;;
47053;SDS011;32811;52.382;5.270;2022-11-21T14:54:44;21.23;;;12.50;;
47053;SDS011;32811;52.382;5.270;2022-11-21T14:57:32;22.33;;;11.27;;
47053;SDS011;32811;52.382;5.270;2022-11-21T15:00:04;18.00;;;12.60;;
47053;SDS011;32811;52.382;5.270;2022-11-21T15:02:32;20.58;;;13.13;;
47053;SDS011;32811;52.382;5.270;2022-11-21T15:05:04;16.88;;;11.32;;
47053;SDS011;32811;52.382;5.270;2022-11-21T15:07:39;22.25;;;12.27;;
47053;SDS011;32811;52.382;5.270;2022-11-21T15:10:15;19.48;;;11.65;;
47053;SDS011;32811;52.382;5.270;2022-11-21T15:12:57;19.70;;;10.90;;
47053;SDS011;32811;52.382;5.270;2022-11-21T15:15:30;22.52;;;11.45;;
47053;SDS011;32811;52.382;5.270;2022-11-21T15:18:13;24.52;;;12.23;;
47053;SDS011;32811;52.382;5.270;2022-11-21T15:20:57;19.92;;;13.05;;
47053;SDS011;32811;52.382;5.270;2022-11-21T15:23:33;23.30;;;14.38;;
47053;SDS011;32811;52.382;5.270;2022-11-21T15:26:01;20.33;;;11.93;;
47053;SDS011;32811;52.382;5.270;2022-11-21T15:28:28;21.75;;;12.57;;
47053;SDS011;32811;52.382;5.270;2022-11-21T15:33:58;16.67;;;12.43;;
47053;SDS011;32811;52.382;5.270;2022-11-21T15:36:59;21.35;;;11.85;;
47053;SDS011;32811;52.382;5.270;2022-11-21T15:39:27;20.70;;;12.02;;
47053;SDS011;32811;52.382;5.270;2022-11-21T15:41:54;19.35;;;12.35;;
47053;SDS011;32811;52.382;5.270;2022-11-21T15:44:21;16.95;;;11.32;;
47053;SDS011;32811;52.382;5.270;2022-11-21T15:46:51;19.17;;;11.70;;
47053;SDS011;32811;52.382;5.270;2022-11-21T15:49:18;22.38;;;12.95;;
47053;SDS011;32811;52.382;5.270;2022-11-21T15:51:58;18.85;;;12.63;;
47053;SDS011;32811;52.382;5.270;2022-11-21T15:54:32;8.80;;;7.35;;
47053;SDS011;32811;52.382;5.270;2022-11-21T15:56:58;13.38;;;10.45;;
47053;SDS011;32811;52.382;5.270;2022-11-21T15:59:25;24.10;;;12.20;;
47053;SDS011;32811;52.382;5.270;2022-11-21T16:01:53;17.85;;;11.50;;
47053;SDS011;32811;52.382;5.270;2022-11-21T16:04:19;24.58;;;11.68;;
47053;SDS011;32811;52.382;5.270;2022-11-21T16:06:51;19.88;;;11.20;;
47053;SDS011;32811;52.382;5.270;2022-11-21T16:09:19;17.02;;;9.57;;
47053;SDS011;32811;52.382;5.270;2022-11-21T16:11:46;17.17;;;9.65;;
47053;SDS011;32811;52.382;5.270;2022-11-21T16:14:14;13.10;;;10.10;;
47053;SDS011;32811;52.382;5.270;2022-11-21T16:16:44;23.85;;;11.55;;
47053;SDS011;32811;52.382;5.270;2022-11-21T16:19:12;12.20;;;8.77;;
47053;SDS011;32811;52.382;5.270;2022-11-21T16:21:40;24.40;;;11.23;;
47053;SDS011;32811;52.382;5.270;2022-11-21T16:24:07;13.45;;;9.48;;
47053;SDS011;32811;52.382;5.270;2022-11-21T16:26:34;14.70;;;10.23;;
47053;SDS011;32811;52.382;5.270;2022-11-21T16:29:02;12.68;;;8.90;;
47053;SDS011;32811;52.382;5.270;2022-11-21T16:31:31;17.50;;;10.30;;
47053;SDS011;32811;52.382;5.270;2022-11-21T16:33:58;17.65;;;9.70;;
47053;SDS011;32811;52.382;5.270;2022-11-21T16:36:29;15.43;;;9.18;;
47053;SDS011;32811;52.382;5.270;2022-11-21T16:38:57;14.98;;;10.90;;
47053;SDS011;32811;52.382;5.270;2022-11-21T16:41:33;14.50;;;9.10;;
47053;SDS011;32811;52.382;5.270;2022-11-21T16:44:00;12.68;;;9.00;;
47053;SDS011;32811;52.382;5.270;2022-11-21T16:46:27;13.38;;;8.40;;
47053;SDS011;32811;52.382;5.270;2022-11-21T16:48:58;18.70;;;9.85;;
47053;SDS011;32811;52.382;5.270;2022-11-21T16:51:27;28.15;;;9.10;;
47053;SDS011;32811;52.382;5.270;2022-11-21T16:53:55;11.18;;;8.35;;
47053;SDS011;32811;52.382;5.270;2022-11-21T16:56:23;16.15;;;9.63;;
47053;SDS011;32811;52.382;5.270;2022-11-21T16:58:49;13.68;;;8.80;;
47053;SDS011;32811;52.382;5.270;2022-11-21T17:01:18;15.40;;;7.88;;
47053;SDS011;32811;52.382;5.270;2022-11-21T17:03:47;18.27;;;7.93;;
47053;SDS011;32811;52.382;5.270;2022-11-21T17:06:15;16.48;;;7.82;;